sensor_id;sensor_type;location;lat;lon;timestamp;P1;durP1;ratioP1;P2;durP2;ratioP2
12519;SDS011;6325;49.540;8.364;2024-01-07T00:02:25;5.67;;;5.17;;
12519;SDS011;6325;49.540;8.364;2024-01-07T00:04:52;5.75;;;5.25;;
12519;SDS011;6325;49.540;8.364;2024-01-07T00:07:18;5.82;;;5.32;;
12519;SDS011;6325;49.540;8.364;2024-01-07T00:09:46;5.87;;;5.37;;
12519;SDS011;6325;49.540;8.364;2024-01-07T00:12:13;5.93;;;5.43;;
12519;SDS011;6325;49.540;8.364;2024-01-07T00:14:40;6.10;;;5.60;;
12519;SDS011;6325;49.540;8.364;2024-01-07T00:17:07;6.28;;;5.75;;
12519;SDS011;6325;49.540;8.364;2024-01-07T00:19:35;6.13;;;5.60;;
12519;SDS011;6325;49.540;8.364;2024-01-07T00:22:03;6.20;;;5.60;;
12519;SDS011;6325;49.540;8.364;2024-01-07T00:24:30;5.97;;;5.47;;
12519;SDS011;6325;49.540;8.364;2024-01-07T00:26:57;6.47;;;5.88;;
12519;SDS011;6325;49.540;8.364;2024-01-07T00:29:23;6.50;;;5.90;;
12519;SDS011;6325;49.540;8.364;2024-01-07T00:31:50;6.10;;;5.50;;
12519;SDS011;6325;49.540;8.364;2024-01-07T00:34:17;5.60;;;5.10;;
12519;SDS011;6325;49.540;8.364;2024-01-07T00:36:45;5.93;;;5.43;;
12519;SDS011;6325;49.540;8.364;2024-01-07T00:39:12;6.15;;;5.55;;
12519;SDS011;6325;49.540;8.364;2024-01-07T00:41:38;6.30;;;5.70;;
12519;SDS011;6325;49.540;8.364;2024-01-07T00:44:05;6.20;;;5.60;;
12519;SDS011;6325;49.540;8.364;2024-01-07T00:46:32;5.78;;;5.28;;
12519;SDS011;6325;49.540;8.364;2024-01-07T00:48:58;5.60;;;5.10;;
12519;SDS011;6325;49.540;8.364;2024-01-07T00:51:25;5.22;;;4.72;;
12519;SDS011;6325;49.540;8.364;2024-01-07T00:53:53;5.57;;;5.07;;
12519;SDS011;6325;49.540;8.364;2024-01-07T00:56:20;5.57;;;5.07;;
12519;SDS011;6325;49.540;8.364;2024-01-07T00:58:47;5.20;;;4.70;;
12519;SDS011;6325;49.540;8.364;2024-01-07T01:01:13;4.97;;;4.57;;
12519;SDS011;6325;49.540;8.364;2024-01-07T01:03:40;5.25;;;4.75;;
12519;SDS011;6325;49.540;8.364;2024-01-07T01:06:07;4.90;;;4.50;;
12519;SDS011;6325;49.540;8.364;2024-01-07T01:08:33;5.20;;;4.80;;
12519;SDS011;6325;49.540;8.364;2024-01-07T01:11:01;5.05;;;4.60;;
12519;SDS011;6325;49.540;8.364;2024-01-07T01:13:28;4.50;;;4.10;;
12519;SDS011;6325;49.540;8.364;2024-01-07T01:15:55;4.60;;;4.20;;
12519;SDS011;6325;49.540;8.364;2024-01-07T01:18:22;4.88;;;4.45;;
12519;SDS011;6325;49.540;8.364;2024-01-07T01:20:48;4.70;;;4.30;;
12519;SDS011;6325;49.540;8.364;2024-01-07T01:23:15;4.40;;;4.00;;
12519;SDS011;6325;49.540;8.364;2024-01-07T01:25:42;4.53;;;4.13;;
12519;SDS011;6325;49.540;8.364;2024-01-07T01:28:10;4.43;;;4.03;;
12519;SDS011;6325;49.540;8.364;2024-01-07T01:30:37;4.00;;;3.70;;
12519;SDS011;6325;49.540;8.364;2024-01-07T01:33:04;3.88;;;3.58;;
12519;SDS011;6325;49.540;8.364;2024-01-07T01:35:31;3.72;;;3.42;;
12519;SDS011;6325;49.540;8.364;2024-01-07T01:37:58;3.72;;;3.42;;
12519;SDS011;6325;49.540;8.364;2024-01-07T01:40:28;3.65;;;3.35;;
12519;SDS011;6325;49.540;8.364;2024-01-07T01:42:54;4.27;;;3.87;;
12519;SDS011;6325;49.540;8.364;2024-01-07T01:45:22;4.10;;;3.80;;
12519;SDS011;6325;49.540;8.364;2024-01-07T01:47:49;4.07;;;3.78;;
12519;SDS011;6325;49.540;8.364;2024-01-07T01:50:16;3.92;;;3.63;;
12519;SDS011;6325;49.540;8.364;2024-01-07T01:52:43;4.43;;;4.03;;
12519;SDS011;6325;49.540;8.364;2024-01-07T01:55:11;4.00;;;3.70;;
12519;SDS011;6325;49.540;8.364;2024-01-07T01:57:38;4.43;;;4.03;;
12519;SDS011;6325;49.540;8.364;2024-01-07T02:00:07;3.80;;;3.50;;
12519;SDS011;6325;49.540;8.364;2024-01-07T02:02:35;3.72;;;3.42;;
12519;SDS011;6325;49.540;8.364;2024-01-07T02:05:02;4.00;;;3.70;;
12519;SDS011;6325;49.540;8.364;2024-01-07T02:07:29;3.80;;;3.50;;
12519;SDS011;6325;49.540;8.364;2024-01-07T02:09:57;3.72;;;3.42;;
12519;SDS011;6325;49.540;8.364;2024-01-07T02:12:23;3.88;;;3.58;;
12519;SDS011;6325;49.540;8.364;2024-01-07T02:14:50;3.90;;;3.60;;
12519;SDS011;6325;49.540;8.364;2024-01-07T02:17:18;3.63;;;3.33;;
12519;SDS011;6325;49.540;8.364;2024-01-07T02:19:47;3.70;;;3.40;;
12519;SDS011;6325;49.540;8.364;2024-01-07T02:22:13;3.50;;;3.20;;
12519;SDS011;6325;49.540;8.364;2024-01-07T02:24:41;3.70;;;3.40;;
12519;SDS011;6325;49.540;8.364;2024-01-07T02:27:08;3.67;;;3.38;;
12519;SDS011;6325;49.540;8.364;2024-01-07T02:29:35;3.42;;;3.20;;
12519;SDS011;6325;49.540;8.364;2024-01-07T02:32:02;3.70;;;3.40;;
12519;SDS011;6325;49.540;8.364;2024-01-07T02:34:29;3.70;;;3.40;;
12519;SDS011;6325;49.540;8.364;2024-01-07T02:36:55;3.63;;;3.33;;
12519;SDS011;6325;49.540;8.364;2024-01-07T02:39:22;3.70;;;3.40;;
12519;SDS011;6325;49.540;8.364;2024-01-07T02:41:50;3.25;;;3.05;;
12519;SDS011;6325;49.540;8.364;2024-01-07T02:44:17;3.00;;;2.80;;
12519;SDS011;6325;49.540;8.364;2024-01-07T02:46:44;3.35;;;3.05;;
12519;SDS011;6325;49.540;8.364;2024-01-07T02:49:11;3.47;;;3.17;;
12519;SDS011;6325;49.540;8.364;2024-01-07T02:51:38;3.60;;;3.30;;
12519;SDS011;6325;49.540;8.364;2024-01-07T02:54:04;3.58;;;3.28;;
12519;SDS011;6325;49.540;8.364;2024-01-07T02:56:31;3.28;;;3.05;;
12519;SDS011;6325;49.540;8.364;2024-01-07T02:58:59;3.20;;;3.00;;
12519;SDS011;6325;49.540;8.364;2024-01-07T03:01:26;3.43;;;3.13;;
12519;SDS011;6325;49.540;8.364;2024-01-07T03:03:53;3.50;;;3.20;;
12519;SDS011;6325;49.540;8.364;2024-01-07T03:06:19;3.80;;;3.50;;
12519;SDS011;6325;49.540;8.364;2024-01-07T03:08:46;3.80;;;3.50;;
12519;SDS011;6325;49.540;8.364;2024-01-07T03:11:14;3.35;;;3.15;;
12519;SDS011;6325;49.540;8.364;2024-01-07T03:13:41;3.65;;;3.35;;
12519;SDS011;6325;49.540;8.364;2024-01-07T03:16:18;3.80;;;3.50;;
12519;SDS011;6325;49.540;8.364;2024-01-07T03:18:46;3.83;;;3.53;;
12519;SDS011;6325;49.540;8.364;2024-01-07T03:21:16;3.55;;;3.25;;
12519;SDS011;6325;49.540;8.364;2024-01-07T03:23:44;3.65;;;3.38;;
12519;SDS011;6325;49.540;8.364;2024-01-07T03:26:10;3.80;;;3.50;;
12519;SDS011;6325;49.540;8.364;2024-01-07T03:28:38;3.92;;;3.63;;
12519;SDS011;6325;49.540;8.364;2024-01-07T03:31:05;3.88;;;3.58;;
12519;SDS011;6325;49.540;8.364;2024-01-07T03:33:35;3.95;;;3.65;;
12519;SDS011;6325;49.540;8.364;2024-01-07T03:36:05;3.95;;;3.65;;
12519;SDS011;6325;49.540;8.364;2024-01-07T03:38:33;4.20;;;3.90;;
12519;SDS011;6325;49.540;8.364;2024-01-07T03:40:59;4.03;;;3.73;;
12519;SDS011;6325;49.540;8.364;2024-01-07T03:43:26;4.38;;;4.00;;
12519;SDS011;6325;49.540;8.364;2024-01-07T03:45:53;3.65;;;3.35;;
12519;SDS011;6325;49.540;8.364;2024-01-07T03:48:19;3.70;;;3.40;;
12519;SDS011;6325;49.540;8.364;2024-01-07T03:50:47;4.00;;;3.70;;
12519;SDS011;6325;49.540;8.364;2024-01-07T03:53:14;4.25;;;3.85;;
12519;SDS011;6325;49.540;8.364;2024-01-07T03:55:41;4.10;;;3.80;;
12519;SDS011;6325;49.540;8.364;2024-01-07T03:58:08;3.88;;;3.58;;
12519;SDS011;6325;49.540;8.364;2024-01-07T04:00:35;3.70;;;3.40;;
12519;SDS011;6325;49.540;8.364;2024-01-07T04:03:02;3.80;;;3.50;;
12519;SDS011;6325;49.540;8.364;2024-01-07T04:05:29;3.92;;;3.63;;
12519;SDS011;6325;49.540;8.364;2024-01-07T04:07:59;4.10;;;3.80;;
12519;SDS011;6325;49.540;8.364;2024-01-07T04:10:26;4.05;;;3.67;;
12519;SDS011;6325;49.540;8.364;2024-01-07T04:12:53;3.85;;;3.60;;
12519;SDS011;6325;49.540;8.364;2024-01-07T04:15:20;3.92;;;3.63;;
12519;SDS011;6325;49.540;8.364;2024-01-07T04:17:47;4.10;;;3.80;;
12519;SDS011;6325;49.540;8.364;2024-01-07T04:20:14;3.40;;;3.20;;
12519;SDS011;6325;49.540;8.364;2024-01-07T04:22:41;3.67;;;3.42;;
12519;SDS011;6325;49.540;8.364;2024-01-07T04:25:09;3.70;;;3.40;;
12519;SDS011;6325;49.540;8.364;2024-01-07T04:27:36;3.45;;;3.25;;
12519;SDS011;6325;49.540;8.364;2024-01-07T04:30:03;3.75;;;3.45;;
12519;SDS011;6325;49.540;8.364;2024-01-07T04:32:31;3.80;;;3.50;;
12519;SDS011;6325;49.540;8.364;2024-01-07T04:34:58;4.00;;;3.70;;
12519;SDS011;6325;49.540;8.364;2024-01-07T04:37:24;3.83;;;3.55;;
12519;SDS011;6325;49.540;8.364;2024-01-07T04:39:51;4.03;;;3.72;;
12519;SDS011;6325;49.540;8.364;2024-01-07T04:42:19;4.13;;;3.83;;
12519;SDS011;6325;49.540;8.364;2024-01-07T04:44:46;4.03;;;3.72;;
12519;SDS011;6325;49.540;8.364;2024-01-07T04:47:23;4.03;;;3.65;;
12519;SDS011;6325;49.540;8.364;2024-01-07T04:49:51;4.45;;;4.15;;
12519;SDS011;6325;49.540;8.364;2024-01-07T04:52:18;4.25;;;3.95;;
12519;SDS011;6325;49.540;8.364;2024-01-07T04:54:45;3.78;;;3.58;;
12519;SDS011;6325;49.540;8.364;2024-01-07T04:57:12;4.22;;;3.83;;
12519;SDS011;6325;49.540;8.364;2024-01-07T04:59:40;4.25;;;3.92;;
12519;SDS011;6325;49.540;8.364;2024-01-07T05:02:06;4.25;;;3.90;;
12519;SDS011;6325;49.540;8.364;2024-01-07T05:04:34;4.50;;;4.20;;
12519;SDS011;6325;49.540;8.364;2024-01-07T05:07:01;4.35;;;4.00;;
12519;SDS011;6325;49.540;8.364;2024-01-07T05:09:28;4.28;;;3.97;;
12519;SDS011;6325;49.540;8.364;2024-01-07T05:11:55;4.15;;;3.85;;
12519;SDS011;6325;49.540;8.364;2024-01-07T05:14:22;4.22;;;3.92;;
12519;SDS011;6325;49.540;8.364;2024-01-07T05:16:50;4.32;;;4.03;;
12519;SDS011;6325;49.540;8.364;2024-01-07T05:19:19;4.22;;;3.92;;
12519;SDS011;6325;49.540;8.364;2024-01-07T05:21:46;3.90;;;3.60;;
12519;SDS011;6325;49.540;8.364;2024-01-07T05:24:13;3.90;;;3.60;;
12519;SDS011;6325;49.540;8.364;2024-01-07T05:26:39;4.35;;;3.95;;
12519;SDS011;6325;49.540;8.364;2024-01-07T05:29:08;4.47;;;4.07;;
12519;SDS011;6325;49.540;8.364;2024-01-07T05:31:34;4.00;;;3.70;;
12519;SDS011;6325;49.540;8.364;2024-01-07T05:34:02;3.65;;;3.35;;
12519;SDS011;6325;49.540;8.364;2024-01-07T05:36:29;3.97;;;3.67;;
12519;SDS011;6325;49.540;8.364;2024-01-07T05:38:56;3.50;;;3.30;;
12519;SDS011;6325;49.540;8.364;2024-01-07T05:41:23;3.15;;;2.95;;
12519;SDS011;6325;49.540;8.364;2024-01-07T05:43:49;3.80;;;3.50;;
12519;SDS011;6325;49.540;8.364;2024-01-07T05:46:16;3.60;;;3.30;;
12519;SDS011;6325;49.540;8.364;2024-01-07T05:48:44;3.00;;;2.80;;
12519;SDS011;6325;49.540;8.364;2024-01-07T05:51:13;3.75;;;3.45;;
12519;SDS011;6325;49.540;8.364;2024-01-07T05:53:41;3.27;;;3.07;;
12519;SDS011;6325;49.540;8.364;2024-01-07T05:56:08;3.10;;;2.90;;
12519;SDS011;6325;49.540;8.364;2024-01-07T05:58:35;2.90;;;2.70;;
12519;SDS011;6325;49.540;8.364;2024-01-07T06:01:01;2.92;;;2.72;;
12519;SDS011;6325;49.540;8.364;2024-01-07T06:03:29;2.92;;;2.72;;
12519;SDS011;6325;49.540;8.364;2024-01-07T06:05:55;2.88;;;2.67;;
12519;SDS011;6325;49.540;8.364;2024-01-07T06:10:52;3.30;;;3.08;;
12519;SDS011;6325;49.540;8.364;2024-01-07T06:13:19;3.40;;;3.20;;
12519;SDS011;6325;49.540;8.364;2024-01-07T06:15:46;3.20;;;3.00;;
12519;SDS011;6325;49.540;8.364;2024-01-07T06:18:12;3.33;;;3.13;;
12519;SDS011;6325;49.540;8.364;2024-01-07T06:20:39;3.47;;;3.17;;
12519;SDS011;6325;49.540;8.364;2024-01-07T06:23:06;3.50;;;3.20;;
12519;SDS011;6325;49.540;8.364;2024-01-07T06:25:34;3.70;;;3.40;;
12519;SDS011;6325;49.540;8.364;2024-01-07T06:28:01;3.33;;;3.13;;
12519;SDS011;6325;49.540;8.364;2024-01-07T06:30:28;3.63;;;3.33;;
12519;SDS011;6325;49.540;8.364;2024-01-07T06:32:55;3.92;;;3.63;;
12519;SDS011;6325;49.540;8.364;2024-01-07T06:35:21;3.95;;;3.65;;
12519;SDS011;6325;49.540;8.364;2024-01-07T06:37:48;3.78;;;3.47;;
12519;SDS011;6325;49.540;8.364;2024-01-07T06:40:15;3.85;;;3.55;;
12519;SDS011;6325;49.540;8.364;2024-01-07T06:42:43;4.00;;;3.70;;
12519;SDS011;6325;49.540;8.364;2024-01-07T06:45:10;4.00;;;3.70;;
12519;SDS011;6325;49.540;8.364;2024-01-07T06:47:36;4.30;;;4.00;;
12519;SDS011;6325;49.540;8.364;2024-01-07T06:50:03;4.00;;;3.70;;
12519;SDS011;6325;49.540;8.364;2024-01-07T06:52:31;4.03;;;3.73;;
12519;SDS011;6325;49.540;8.364;2024-01-07T06:54:57;4.20;;;3.90;;
12519;SDS011;6325;49.540;8.364;2024-01-07T06:57:24;4.40;;;4.00;;
12519;SDS011;6325;49.540;8.364;2024-01-07T06:59:52;4.47;;;4.13;;
12519;SDS011;6325;49.540;8.364;2024-01-07T07:02:19;4.20;;;3.90;;
12519;SDS011;6325;49.540;8.364;2024-01-07T07:04:47;4.78;;;4.38;;
12519;SDS011;6325;49.540;8.364;2024-01-07T07:07:15;4.63;;;4.22;;
12519;SDS011;6325;49.540;8.364;2024-01-07T07:09:42;4.85;;;4.45;;
12519;SDS011;6325;49.540;8.364;2024-01-07T07:12:11;4.70;;;4.30;;
12519;SDS011;6325;49.540;8.364;2024-01-07T07:14:38;5.20;;;4.80;;
12519;SDS011;6325;49.540;8.364;2024-01-07T07:17:07;4.90;;;4.50;;
12519;SDS011;6325;49.540;8.364;2024-01-07T07:19:33;5.30;;;4.90;;
12519;SDS011;6325;49.540;8.364;2024-01-07T07:22:00;5.38;;;4.88;;
12519;SDS011;6325;49.540;8.364;2024-01-07T07:24:27;5.50;;;5.00;;
12519;SDS011;6325;49.540;8.364;2024-01-07T07:26:54;5.05;;;4.65;;
12519;SDS011;6325;49.540;8.364;2024-01-07T07:29:20;5.50;;;5.00;;
12519;SDS011;6325;49.540;8.364;2024-01-07T07:31:47;5.57;;;5.07;;
12519;SDS011;6325;49.540;8.364;2024-01-07T07:34:16;5.60;;;5.10;;
12519;SDS011;6325;49.540;8.364;2024-01-07T07:36:42;5.60;;;5.10;;
12519;SDS011;6325;49.540;8.364;2024-01-07T07:39:10;5.37;;;4.93;;
12519;SDS011;6325;49.540;8.364;2024-01-07T07:41:38;5.50;;;5.00;;
12519;SDS011;6325;49.540;8.364;2024-01-07T07:44:05;5.75;;;5.25;;
12519;SDS011;6325;49.540;8.364;2024-01-07T07:46:32;6.15;;;5.55;;
12519;SDS011;6325;49.540;8.364;2024-01-07T07:48:59;5.60;;;5.10;;
12519;SDS011;6325;49.540;8.364;2024-01-07T07:51:28;5.60;;;5.07;;
12519;SDS011;6325;49.540;8.364;2024-01-07T07:53:55;5.35;;;4.85;;
12519;SDS011;6325;49.540;8.364;2024-01-07T07:56:22;5.80;;;5.30;;
12519;SDS011;6325;49.540;8.364;2024-01-07T07:58:49;5.57;;;5.07;;
12519;SDS011;6325;49.540;8.364;2024-01-07T08:01:16;5.60;;;5.10;;
12519;SDS011;6325;49.540;8.364;2024-01-07T08:03:44;5.50;;;5.00;;
12519;SDS011;6325;49.540;8.364;2024-01-07T08:06:11;5.40;;;4.93;;
12519;SDS011;6325;49.540;8.364;2024-01-07T08:08:39;4.93;;;4.53;;
12519;SDS011;6325;49.540;8.364;2024-01-07T08:11:06;5.45;;;4.95;;
12519;SDS011;6325;49.540;8.364;2024-01-07T08:13:34;5.10;;;4.70;;
12519;SDS011;6325;49.540;8.364;2024-01-07T08:16:01;5.88;;;5.38;;
12519;SDS011;6325;49.540;8.364;2024-01-07T08:18:29;5.77;;;5.27;;
12519;SDS011;6325;49.540;8.364;2024-01-07T08:20:56;5.80;;;5.30;;
12519;SDS011;6325;49.540;8.364;2024-01-07T08:23:25;5.30;;;4.90;;
12519;SDS011;6325;49.540;8.364;2024-01-07T08:25:53;5.45;;;5.00;;
12519;SDS011;6325;49.540;8.364;2024-01-07T08:28:20;5.38;;;4.90;;
12519;SDS011;6325;49.540;8.364;2024-01-07T08:30:47;5.43;;;4.93;;
12519;SDS011;6325;49.540;8.364;2024-01-07T08:33:16;5.50;;;5.00;;
12519;SDS011;6325;49.540;8.364;2024-01-07T08:35:43;4.95;;;4.53;;
12519;SDS011;6325;49.540;8.364;2024-01-07T08:38:10;5.20;;;4.70;;
12519;SDS011;6325;49.540;8.364;2024-01-07T08:40:37;5.55;;;5.05;;
12519;SDS011;6325;49.540;8.364;2024-01-07T08:43:06;5.40;;;4.90;;
12519;SDS011;6325;49.540;8.364;2024-01-07T08:45:33;5.30;;;4.80;;
12519;SDS011;6325;49.540;8.364;2024-01-07T08:48:00;4.90;;;4.50;;
12519;SDS011;6325;49.540;8.364;2024-01-07T08:50:27;4.82;;;4.43;;
12519;SDS011;6325;49.540;8.364;2024-01-07T08:52:55;4.50;;;4.20;;
12519;SDS011;6325;49.540;8.364;2024-01-07T08:55:22;4.78;;;4.38;;
12519;SDS011;6325;49.540;8.364;2024-01-07T08:57:48;4.85;;;4.45;;
12519;SDS011;6325;49.540;8.364;2024-01-07T09:00:18;4.70;;;4.30;;
12519;SDS011;6325;49.540;8.364;2024-01-07T09:02:46;4.40;;;4.00;;
12519;SDS011;6325;49.540;8.364;2024-01-07T09:05:13;4.47;;;4.18;;
12519;SDS011;6325;49.540;8.364;2024-01-07T09:07:39;4.75;;;4.35;;
12519;SDS011;6325;49.540;8.364;2024-01-07T09:10:07;4.63;;;4.23;;
12519;SDS011;6325;49.540;8.364;2024-01-07T09:12:35;4.72;;;4.32;;
12519;SDS011;6325;49.540;8.364;2024-01-07T09:15:03;4.07;;;3.77;;
12519;SDS011;6325;49.540;8.364;2024-01-07T09:17:34;4.45;;;4.05;;
12519;SDS011;6325;49.540;8.364;2024-01-07T09:20:01;4.63;;;4.22;;
12519;SDS011;6325;49.540;8.364;2024-01-07T09:22:29;4.93;;;4.53;;
12519;SDS011;6325;49.540;8.364;2024-01-07T09:24:56;4.18;;;3.88;;
12519;SDS011;6325;49.540;8.364;2024-01-07T09:27:23;4.68;;;4.28;;
12519;SDS011;6325;49.540;8.364;2024-01-07T09:29:49;4.75;;;4.35;;
12519;SDS011;6325;49.540;8.364;2024-01-07T09:32:16;5.50;;;5.00;;
12519;SDS011;6325;49.540;8.364;2024-01-07T09:34:44;4.78;;;4.38;;
12519;SDS011;6325;49.540;8.364;2024-01-07T09:37:11;4.90;;;4.40;;
12519;SDS011;6325;49.540;8.364;2024-01-07T09:39:39;4.63;;;4.22;;
12519;SDS011;6325;49.540;8.364;2024-01-07T09:42:06;4.60;;;4.25;;
12519;SDS011;6325;49.540;8.364;2024-01-07T09:44:38;5.10;;;4.60;;
12519;SDS011;6325;49.540;8.364;2024-01-07T09:47:05;5.10;;;4.70;;
12519;SDS011;6325;49.540;8.364;2024-01-07T09:49:36;5.30;;;4.80;;
12519;SDS011;6325;49.540;8.364;2024-01-07T09:52:04;4.95;;;4.55;;
12519;SDS011;6325;49.540;8.364;2024-01-07T09:54:31;5.07;;;4.68;;
12519;SDS011;6325;49.540;8.364;2024-01-07T09:57:00;5.00;;;4.60;;
12519;SDS011;6325;49.540;8.364;2024-01-07T09:59:27;5.20;;;4.70;;
12519;SDS011;6325;49.540;8.364;2024-01-07T10:01:55;5.30;;;4.80;;
12519;SDS011;6325;49.540;8.364;2024-01-07T10:04:22;5.20;;;4.70;;
12519;SDS011;6325;49.540;8.364;2024-01-07T10:06:49;5.05;;;4.65;;
12519;SDS011;6325;49.540;8.364;2024-01-07T10:09:18;4.80;;;4.40;;
12519;SDS011;6325;49.540;8.364;2024-01-07T10:11:45;4.85;;;4.40;;
12519;SDS011;6325;49.540;8.364;2024-01-07T10:14:12;5.13;;;4.73;;
12519;SDS011;6325;49.540;8.364;2024-01-07T10:16:39;4.80;;;4.40;;
12519;SDS011;6325;49.540;8.364;2024-01-07T10:19:06;4.57;;;4.18;;
12519;SDS011;6325;49.540;8.364;2024-01-07T10:21:33;5.05;;;4.65;;
12519;SDS011;6325;49.540;8.364;2024-01-07T10:24:09;4.60;;;4.20;;
12519;SDS011;6325;49.540;8.364;2024-01-07T10:26:38;4.72;;;4.35;;
12519;SDS011;6325;49.540;8.364;2024-01-07T10:29:06;4.57;;;4.28;;
12519;SDS011;6325;49.540;8.364;2024-01-07T10:31:33;4.73;;;4.33;;
12519;SDS011;6325;49.540;8.364;2024-01-07T10:34:00;4.50;;;4.10;;
12519;SDS011;6325;49.540;8.364;2024-01-07T10:36:28;4.40;;;4.03;;
12519;SDS011;6325;49.540;8.364;2024-01-07T10:38:56;4.40;;;4.00;;
12519;SDS011;6325;49.540;8.364;2024-01-07T10:41:23;4.10;;;3.80;;
12519;SDS011;6325;49.540;8.364;2024-01-07T10:43:53;3.90;;;3.60;;
12519;SDS011;6325;49.540;8.364;2024-01-07T10:46:20;4.03;;;3.72;;
12519;SDS011;6325;49.540;8.364;2024-01-07T10:48:54;4.18;;;3.78;;
12519;SDS011;6325;49.540;8.364;2024-01-07T10:51:25;4.05;;;3.75;;
12519;SDS011;6325;49.540;8.364;2024-01-07T10:53:55;4.00;;;3.70;;
12519;SDS011;6325;49.540;8.364;2024-01-07T10:56:23;3.92;;;3.63;;
12519;SDS011;6325;49.540;8.364;2024-01-07T10:58:52;3.60;;;3.30;;
12519;SDS011;6325;49.540;8.364;2024-01-07T11:01:21;3.45;;;3.25;;
12519;SDS011;6325;49.540;8.364;2024-01-07T11:03:51;3.83;;;3.53;;
12519;SDS011;6325;49.540;8.364;2024-01-07T11:06:23;4.00;;;3.70;;
12519;SDS011;6325;49.540;8.364;2024-01-07T11:08:58;3.80;;;3.50;;
12519;SDS011;6325;49.540;8.364;2024-01-07T11:11:35;3.58;;;3.38;;
12519;SDS011;6325;49.540;8.364;2024-01-07T11:14:08;3.73;;;3.33;;
12519;SDS011;6325;49.540;8.364;2024-01-07T11:17:02;3.40;;;3.20;;
12519;SDS011;6325;49.540;8.364;2024-01-07T11:19:29;3.60;;;3.30;;
12519;SDS011;6325;49.540;8.364;2024-01-07T11:24:47;3.33;;;3.13;;
12519;SDS011;6325;49.540;8.364;2024-01-07T11:27:15;3.78;;;3.47;;
12519;SDS011;6325;49.540;8.364;2024-01-07T11:29:43;3.35;;;3.15;;
12519;SDS011;6325;49.540;8.364;2024-01-07T11:32:12;3.30;;;3.10;;
12519;SDS011;6325;49.540;8.364;2024-01-07T11:34:39;3.40;;;3.20;;
12519;SDS011;6325;49.540;8.364;2024-01-07T11:37:09;3.70;;;3.40;;
12519;SDS011;6325;49.540;8.364;2024-01-07T11:39:37;3.88;;;3.58;;
12519;SDS011;6325;49.540;8.364;2024-01-07T11:42:04;3.67;;;3.38;;
12519;SDS011;6325;49.540;8.364;2024-01-07T11:44:33;3.80;;;3.50;;
12519;SDS011;6325;49.540;8.364;2024-01-07T11:47:03;3.75;;;3.45;;
12519;SDS011;6325;49.540;8.364;2024-01-07T11:49:31;3.80;;;3.50;;
12519;SDS011;6325;49.540;8.364;2024-01-07T11:51:58;3.90;;;3.60;;
12519;SDS011;6325;49.540;8.364;2024-01-07T11:54:26;3.60;;;3.40;;
12519;SDS011;6325;49.540;8.364;2024-01-07T11:56:54;3.67;;;3.38;;
12519;SDS011;6325;49.540;8.364;2024-01-07T11:59:21;3.85;;;3.55;;
12519;SDS011;6325;49.540;8.364;2024-01-07T12:01:48;3.90;;;3.60;;
12519;SDS011;6325;49.540;8.364;2024-01-07T12:04:16;4.20;;;3.90;;
12519;SDS011;6325;49.540;8.364;2024-01-07T12:06:43;4.18;;;3.88;;
12519;SDS011;6325;49.540;8.364;2024-01-07T12:09:11;4.20;;;3.90;;
12519;SDS011;6325;49.540;8.364;2024-01-07T12:11:39;4.20;;;3.90;;
12519;SDS011;6325;49.540;8.364;2024-01-07T12:14:06;4.20;;;3.90;;
12519;SDS011;6325;49.540;8.364;2024-01-07T12:16:33;3.97;;;3.67;;
12519;SDS011;6325;49.540;8.364;2024-01-07T12:19:00;4.30;;;4.00;;
12519;SDS011;6325;49.540;8.364;2024-01-07T12:21:28;4.38;;;4.00;;
12519;SDS011;6325;49.540;8.364;2024-01-07T12:23:55;4.35;;;3.97;;
12519;SDS011;6325;49.540;8.364;2024-01-07T12:26:25;4.15;;;3.85;;
12519;SDS011;6325;49.540;8.364;2024-01-07T12:28:52;4.55;;;4.15;;
12519;SDS011;6325;49.540;8.364;2024-01-07T12:31:19;4.00;;;3.70;;
12519;SDS011;6325;49.540;8.364;2024-01-07T12:33:45;4.40;;;4.00;;
12519;SDS011;6325;49.540;8.364;2024-01-07T12:36:12;4.25;;;3.88;;
12519;SDS011;6325;49.540;8.364;2024-01-07T12:38:41;3.85;;;3.55;;
12519;SDS011;6325;49.540;8.364;2024-01-07T12:41:08;4.00;;;3.70;;
12519;SDS011;6325;49.540;8.364;2024-01-07T12:43:36;4.40;;;4.00;;
12519;SDS011;6325;49.540;8.364;2024-01-07T12:46:03;3.90;;;3.60;;
12519;SDS011;6325;49.540;8.364;2024-01-07T12:48:30;3.95;;;3.65;;
12519;SDS011;6325;49.540;8.364;2024-01-07T12:50:57;4.25;;;3.85;;
12519;SDS011;6325;49.540;8.364;2024-01-07T12:53:24;4.20;;;3.83;;
12519;SDS011;6325;49.540;8.364;2024-01-07T12:55:52;4.10;;;3.80;;
12519;SDS011;6325;49.540;8.364;2024-01-07T12:58:19;3.95;;;3.65;;
12519;SDS011;6325;49.540;8.364;2024-01-07T13:00:46;3.90;;;3.60;;
12519;SDS011;6325;49.540;8.364;2024-01-07T13:03:13;3.80;;;3.50;;
12519;SDS011;6325;49.540;8.364;2024-01-07T13:05:42;4.25;;;3.85;;
12519;SDS011;6325;49.540;8.364;2024-01-07T13:08:11;4.00;;;3.70;;
12519;SDS011;6325;49.540;8.364;2024-01-07T13:10:37;3.90;;;3.60;;
12519;SDS011;6325;49.540;8.364;2024-01-07T13:13:06;4.00;;;3.70;;
12519;SDS011;6325;49.540;8.364;2024-01-07T13:15:35;4.07;;;3.72;;
12519;SDS011;6325;49.540;8.364;2024-01-07T13:18:01;4.30;;;3.90;;
12519;SDS011;6325;49.540;8.364;2024-01-07T13:20:29;4.05;;;3.70;;
12519;SDS011;6325;49.540;8.364;2024-01-07T13:22:55;4.63;;;4.22;;
12519;SDS011;6325;49.540;8.364;2024-01-07T13:25:22;4.38;;;3.97;;
12519;SDS011;6325;49.540;8.364;2024-01-07T13:27:49;4.55;;;4.15;;
12519;SDS011;6325;49.540;8.364;2024-01-07T13:30:17;4.50;;;4.10;;
12519;SDS011;6325;49.540;8.364;2024-01-07T13:32:44;4.45;;;4.13;;
12519;SDS011;6325;49.540;8.364;2024-01-07T13:35:11;4.07;;;3.78;;
12519;SDS011;6325;49.540;8.364;2024-01-07T13:37:40;4.00;;;3.70;;
12519;SDS011;6325;49.540;8.364;2024-01-07T13:40:08;4.35;;;3.95;;
12519;SDS011;6325;49.540;8.364;2024-01-07T13:42:36;4.65;;;4.22;;
12519;SDS011;6325;49.540;8.364;2024-01-07T13:45:03;4.70;;;4.20;;
12519;SDS011;6325;49.540;8.364;2024-01-07T13:47:31;4.18;;;3.80;;
12519;SDS011;6325;49.540;8.364;2024-01-07T13:50:00;4.00;;;3.70;;
12519;SDS011;6325;49.540;8.364;2024-01-07T13:52:28;4.32;;;3.92;;
12519;SDS011;6325;49.540;8.364;2024-01-07T13:54:55;4.53;;;4.13;;
12519;SDS011;6325;49.540;8.364;2024-01-07T13:57:22;4.97;;;3.75;;
12519;SDS011;6325;49.540;8.364;2024-01-07T13:59:49;4.47;;;4.07;;
12519;SDS011;6325;49.540;8.364;2024-01-07T14:02:15;4.20;;;3.83;;
12519;SDS011;6325;49.540;8.364;2024-01-07T14:04:45;4.43;;;4.03;;
12519;SDS011;6325;49.540;8.364;2024-01-07T14:07:13;4.40;;;4.00;;
12519;SDS011;6325;49.540;8.364;2024-01-07T14:09:40;4.03;;;3.72;;
12519;SDS011;6325;49.540;8.364;2024-01-07T14:12:07;4.18;;;3.88;;
12519;SDS011;6325;49.540;8.364;2024-01-07T14:14:34;5.03;;;4.55;;
12519;SDS011;6325;49.540;8.364;2024-01-07T14:17:01;4.35;;;3.95;;
12519;SDS011;6325;49.540;8.364;2024-01-07T14:19:27;4.10;;;3.75;;
12519;SDS011;6325;49.540;8.364;2024-01-07T14:21:55;3.78;;;3.47;;
12519;SDS011;6325;49.540;8.364;2024-01-07T14:24:22;3.80;;;3.50;;
12519;SDS011;6325;49.540;8.364;2024-01-07T14:26:49;4.07;;;3.78;;
12519;SDS011;6325;49.540;8.364;2024-01-07T14:29:16;3.95;;;3.58;;
12519;SDS011;6325;49.540;8.364;2024-01-07T14:31:43;4.05;;;3.75;;
12519;SDS011;6325;49.540;8.364;2024-01-07T14:34:11;4.20;;;3.80;;
12519;SDS011;6325;49.540;8.364;2024-01-07T14:36:39;3.95;;;3.60;;
12519;SDS011;6325;49.540;8.364;2024-01-07T14:39:08;4.18;;;3.80;;
12519;SDS011;6325;49.540;8.364;2024-01-07T14:41:34;4.10;;;3.70;;
12519;SDS011;6325;49.540;8.364;2024-01-07T14:44:01;4.20;;;3.80;;
12519;SDS011;6325;49.540;8.364;2024-01-07T14:46:28;4.20;;;3.80;;
12519;SDS011;6325;49.540;8.364;2024-01-07T14:48:55;4.70;;;4.30;;
12519;SDS011;6325;49.540;8.364;2024-01-07T14:51:22;3.95;;;3.65;;
12519;SDS011;6325;49.540;8.364;2024-01-07T14:53:48;4.07;;;3.67;;
12519;SDS011;6325;49.540;8.364;2024-01-07T14:56:17;3.90;;;3.60;;
12519;SDS011;6325;49.540;8.364;2024-01-07T14:58:44;3.95;;;3.60;;
12519;SDS011;6325;49.540;8.364;2024-01-07T15:01:11;4.13;;;3.80;;
12519;SDS011;6325;49.540;8.364;2024-01-07T15:03:39;4.07;;;3.73;;
12519;SDS011;6325;49.540;8.364;2024-01-07T15:06:06;4.05;;;3.75;;
12519;SDS011;6325;49.540;8.364;2024-01-07T15:08:33;4.05;;;3.75;;